Time,TemperatureF,DewpointF,PressureIn,WindDirection,WindDirectionDegrees,WindSpeedMPH,WindSpeedGustMPH,Humidity,HourlyPrecipIn,Conditions,Clouds,dailyrainin,SoftwareType,DateUTC
2013-01-18 00:10:00,60.6,51.9,29.95,West,270,6.8,-999.0,73,-99.99,,,0.00,Acu-Link.com,2013-01-18 05:10:00,
2013-01-18 00:25:00,60.3,51.6,29.95,West,270,9.9,-999.0,73,-99.99,,,0.00,Acu-Link.com,2013-01-18 05:25:00,
2013-01-18 00:40:00,59.9,51.6,29.95,WNW,292,8.9,-999.0,74,-99.99,,,0.00,Acu-Link.com,2013-01-18 05:40:00,
2013-01-18 00:56:00,59.9,51.6,29.96,WNW,292,14.0,-999.0,74,-99.99,,,0.00,Acu-Link.com,2013-01-18 05:56:00,
2013-01-18 01:11:00,59.4,51.5,29.96,West,270,6.8,-999.0,75,-99.99,,,0.00,Acu-Link.com,2013-01-18 06:11:00,
2013-01-18 01:26:00,59.0,51.4,29.96,West,270,7.8,-999.0,76,-99.99,,,0.00,Acu-Link.com,2013-01-18 06:26:00,
2013-01-18 01:41:00,58.8,51.3,29.96,West,270,7.8,-999.0,76,-99.99,,,0.00,Acu-Link.com,2013-01-18 06:41:00,
2013-01-18 01:56:00,58.5,51.3,29.96,West,270,10.9,-999.0,77,-99.99,,,0.00,Acu-Link.com,2013-01-18 06:56:00,
2013-01-18 02:11:00,57.9,51.1,29.96,WSW,247,4.2,-999.0,78,-99.99,,,0.00,Acu-Link.com,2013-01-18 07:11:00,
2013-01-18 02:26:00,57.7,51.2,29.96,WNW,292,4.7,-999.0,79,-99.99,,,0.00,Acu-Link.com,2013-01-18 07:26:00,
2013-01-18 02:41:00,57.4,51.3,29.97,West,270,4.2,-999.0,80,-99.99,,,0.00,Acu-Link.com,2013-01-18 07:41:00,
2013-01-18 02:56:00,57.0,51.6,29.97,West,270,2.7,-999.0,82,-99.99,,,0.00,Acu-Link.com,2013-01-18 07:56:00,
2013-01-18 03:12:00,56.7,51.9,29.97,NW,315,4.2,-999.0,84,-99.99,,,0.00,Acu-Link.com,2013-01-18 08:12:00,
2013-01-18 03:27:00,56.5,51.7,29.97,NW,315,6.8,-999.0,84,-99.99,,,0.00,Acu-Link.com,2013-01-18 08:27:00,
2013-01-18 03:42:00,56.7,51.3,29.98,NW,315,8.3,-999.0,82,-99.99,,,0.00,Acu-Link.com,2013-01-18 08:42:00,
2013-01-18 03:57:00,56.5,50.7,29.98,WNW,292,4.2,-999.0,81,-99.99,,,0.00,Acu-Link.com,2013-01-18 08:57:00,
2013-01-18 04:12:00,56.1,50.7,29.98,WNW,292,6.8,-999.0,82,-99.99,,,0.00,Acu-Link.com,2013-01-18 09:12:00,
2013-01-18 04:27:00,56.1,50.7,29.98,West,270,3.7,-999.0,82,-99.99,,,0.00,Acu-Link.com,2013-01-18 09:27:00,
2013-01-18 04:43:00,56.3,50.5,29.98,West,270,5.8,-999.0,81,-99.99,,,0.00,Acu-Link.com,2013-01-18 09:43:00,
2013-01-18 04:58:00,55.8,48.7,29.98,WNW,292,8.9,-999.0,77,-99.99,,,0.00,Acu-Link.com,2013-01-18 09:58:00,
2013-01-18 05:13:00,54.9,47.5,29.99,WNW,292,6.8,-999.0,76,-99.99,,,0.00,Acu-Link.com,2013-01-18 10:13:00,
2013-01-18 05:28:00,54.5,47.4,29.99,NW,315,6.3,-999.0,77,-99.99,,,0.00,Acu-Link.com,2013-01-18 10:28:00,
2013-01-18 05:43:00,54.0,47.0,30.00,NNW,337,9.4,-999.0,77,-99.99,,,0.00,Acu-Link.com,2013-01-18 10:43:00,
2013-01-18 05:58:00,53.6,46.9,30.01,WNW,292,6.8,-999.0,78,-99.99,,,0.00,Acu-Link.com,2013-01-18 10:58:00,
2013-01-18 06:13:00,52.9,46.9,30.02,NNE,22,6.3,-999.0,80,-99.99,,,0.00,Acu-Link.com,2013-01-18 11:13:00,
2013-01-18 06:28:00,52.3,46.0,30.03,WNW,292,8.9,-999.0,79,-99.99,,,0.00,Acu-Link.com,2013-01-18 11:28:00,
2013-01-18 06:43:00,52.2,45.9,30.05,NW,315,11.9,-999.0,79,-99.99,,,0.00,Acu-Link.com,2013-01-18 11:43:00,
2013-01-18 06:59:00,51.6,46.0,30.05,NE,45,5.8,-999.0,81,-99.99,,,0.00,Acu-Link.com,2013-01-18 11:59:00,
2013-01-18 07:14:00,51.3,45.3,30.04,West,270,4.7,-999.0,80,-99.99,,,0.00,Acu-Link.com,2013-01-18 12:14:00,
2013-01-18 07:29:00,51.4,45.4,30.06,WNW,292,4.2,-999.0,80,-99.99,,,0.00,Acu-Link.com,2013-01-18 12:29:00,
2013-01-18 07:44:00,51.8,45.8,30.06,NNW,337,4.7,-999.0,80,-99.99,,,0.00,Acu-Link.com,2013-01-18 12:44:00,
2013-01-18 07:59:00,51.8,45.8,30.06,WNW,292,7.3,-999.0,80,-99.99,,,0.00,Acu-Link.com,2013-01-18 12:59:00,
2013-01-18 08:14:00,52.5,46.5,30.06,NW,315,6.3,-999.0,80,-99.99,,,0.00,Acu-Link.com,2013-01-18 13:14:00,
2013-01-18 08:29:00,53.2,46.5,30.07,NW,315,10.9,-999.0,78,-99.99,,,0.00,Acu-Link.com,2013-01-18 13:29:00,
2013-01-18 08:44:00,54.3,46.9,30.08,WNW,292,5.3,-999.0,76,-99.99,,,0.00,Acu-Link.com,2013-01-18 13:44:00,
2013-01-18 08:59:00,54.9,47.1,30.08,NW,315,5.8,-999.0,75,-99.99,,,0.00,Acu-Link.com,2013-01-18 13:59:00,
2013-01-18 09:15:00,55.6,47.4,30.09,West,270,7.3,-999.0,74,-99.99,,,0.00,Acu-Link.com,2013-01-18 14:15:00,
2013-01-18 09:30:00,56.1,47.6,30.09,WNW,292,7.3,-999.0,73,-99.99,,,0.00,Acu-Link.com,2013-01-18 14:30:00,
2013-01-18 09:45:00,57.0,48.1,30.09,NNE,22,5.3,-999.0,72,-99.99,,,0.00,Acu-Link.com,2013-01-18 14:45:00,
2013-01-18 10:00:00,58.3,48.2,30.09,West,270,10.4,-999.0,69,-99.99,,,0.00,Acu-Link.com,2013-01-18 15:00:00,
2013-01-18 10:15:00,58.3,47.8,30.08,WNW,292,7.8,-999.0,68,-99.99,,,0.00,Acu-Link.com,2013-01-18 15:15:00,
2013-01-18 10:30:00,59.4,48.4,30.09,West,270,5.3,-999.0,67,-99.99,,,0.00,Acu-Link.com,2013-01-18 15:30:00,
2013-01-18 10:45:00,59.7,48.7,30.09,East,90,2.7,-999.0,67,-99.99,,,0.00,Acu-Link.com,2013-01-18 15:45:00,
2013-01-18 11:00:00,61.3,49.4,30.09,WNW,292,5.8,-999.0,65,-99.99,,,0.00,Acu-Link.com,2013-01-18 16:00:00,
2013-01-18 11:15:00,61.7,50.2,30.08,West,270,8.3,-999.0,66,-99.99,,,0.00,Acu-Link.com,2013-01-18 16:15:00,
2013-01-18 11:31:00,62.4,50.5,30.07,NW,315,4.2,-999.0,65,-99.99,,,0.00,Acu-Link.com,2013-01-18 16:31:00,
2013-01-18 11:46:00,63.7,51.7,30.07,NNW,337,4.2,-999.0,65,-99.99,,,0.00,Acu-Link.com,2013-01-18 16:46:00,
2013-01-18 12:01:00,64.6,52.6,30.06,West,270,2.7,-999.0,65,-99.99,,,0.00,Acu-Link.com,2013-01-18 17:01:00,
2013-01-18 12:16:00,65.7,53.2,30.05,NNE,22,4.7,-999.0,64,-99.99,,,0.00,Acu-Link.com,2013-01-18 17:16:00,
2013-01-18 12:31:00,66.4,53.4,30.04,NW,315,3.2,-999.0,63,-99.99,,,0.00,Acu-Link.com,2013-01-18 17:31:00,
2013-01-18 12:46:00,66.7,54.1,30.03,NNW,337,2.7,-999.0,64,-99.99,,,0.00,Acu-Link.com,2013-01-18 17:46:00,
2013-01-18 13:01:00,67.3,55.1,30.03,NE,45,7.3,-999.0,65,-99.99,,,0.00,Acu-Link.com,2013-01-18 18:01:00,
2013-01-18 13:16:00,68.7,55.6,30.03,NE,45,6.8,-999.0,63,-99.99,,,0.00,Acu-Link.com,2013-01-18 18:16:00,
2013-01-18 13:31:00,68.9,55.8,30.02,NE,45,5.8,-999.0,63,-99.99,,,0.00,Acu-Link.com,2013-01-18 18:31:00,
2013-01-18 13:47:00,69.3,56.6,30.02,NNE,22,6.3,-999.0,64,-99.99,,,0.00,Acu-Link.com,2013-01-18 18:47:00,
2013-01-18 14:02:00,70.3,57.1,30.01,NNE,22,10.9,-999.0,63,-99.99,,,0.00,Acu-Link.com,2013-01-18 19:02:00,
2013-01-18 14:17:00,70.7,57.0,30.00,NE,45,7.3,-999.0,62,-99.99,,,0.00,Acu-Link.com,2013-01-18 19:17:00,
2013-01-18 14:32:00,70.5,56.4,30.01,NE,45,4.7,-999.0,61,-99.99,,,0.00,Acu-Link.com,2013-01-18 19:32:00,
2013-01-18 14:47:00,70.7,56.6,30.01,ENE,67,8.3,-999.0,61,-99.99,,,0.00,Acu-Link.com,2013-01-18 19:47:00,
2013-01-18 15:02:00,71.2,57.5,30.00,NE,45,8.9,-999.0,62,-99.99,,,0.00,Acu-Link.com,2013-01-18 20:02:00,
2013-01-18 15:17:00,71.1,58.3,30.00,NE,45,7.3,-999.0,64,-99.99,,,0.00,Acu-Link.com,2013-01-18 20:17:00,
2013-01-18 15:32:00,70.9,58.5,30.00,NNE,22,14.0,-999.0,65,-99.99,,,0.00,Acu-Link.com,2013-01-18 20:32:00,
2013-01-18 15:48:00,70.9,59.0,30.00,NE,45,13.5,-999.0,66,-99.99,,,0.00,Acu-Link.com,2013-01-18 20:48:00,
2013-01-18 16:03:00,70.9,59.0,30.02,ESE,112,9.4,-999.0,66,-99.99,,,0.00,Acu-Link.com,2013-01-18 21:03:00,
2013-01-18 16:18:00,71.1,58.7,30.01,North,0,8.9,-999.0,65,-99.99,,,0.00,Acu-Link.com,2013-01-18 21:18:00,
2013-01-18 16:33:00,70.9,58.5,30.01,ENE,67,14.5,-999.0,65,-99.99,,,0.00,Acu-Link.com,2013-01-18 21:33:00,
2013-01-18 16:48:00,71.6,57.4,30.02,NE,45,10.4,-999.0,61,-99.99,,,0.00,Acu-Link.com,2013-01-18 21:48:00,
2013-01-18 17:03:00,70.9,56.3,30.01,ENE,67,9.9,-999.0,60,-99.99,,,0.00,Acu-Link.com,2013-01-18 22:03:00,
2013-01-18 17:18:00,70.5,56.4,30.02,East,90,6.8,-999.0,61,-99.99,,,0.00,Acu-Link.com,2013-01-18 22:18:00,
2013-01-18 17:33:00,70.3,56.2,30.03,NE,45,7.8,-999.0,61,-99.99,,,0.00,Acu-Link.com,2013-01-18 22:33:00,
2013-01-18 17:48:00,70.0,55.5,30.03,ENE,67,7.8,-999.0,60,-99.99,,,0.00,Acu-Link.com,2013-01-18 22:48:00,
2013-01-18 18:04:00,69.6,55.5,30.03,NNE,22,2.7,-999.0,61,-99.99,,,0.00,Acu-Link.com,2013-01-18 23:04:00,
2013-01-18 18:19:00,69.4,55.4,30.03,ENE,67,8.3,-999.0,61,-99.99,,,0.00,Acu-Link.com,2013-01-18 23:19:00,
2013-01-18 18:34:00,69.4,55.4,30.03,NE,45,7.8,-999.0,61,-99.99,,,0.00,Acu-Link.com,2013-01-18 23:34:00,
2013-01-18 18:49:00,69.3,54.8,30.03,NE,45,5.8,-999.0,60,-99.99,,,0.00,Acu-Link.com,2013-01-18 23:49:00,
2013-01-18 19:04:00,69.3,54.8,30.04,NE,45,5.3,-999.0,60,-99.99,,,0.00,Acu-Link.com,2013-01-19 00:04:00,
2013-01-18 19:19:00,69.3,55.3,30.04,NNE,22,7.3,-999.0,61,-99.99,,,0.00,Acu-Link.com,2013-01-19 00:19:00,
2013-01-18 19:34:00,69.3,56.2,30.04,NE,45,4.2,-999.0,63,-99.99,,,0.00,Acu-Link.com,2013-01-19 00:34:00,
2013-01-18 19:50:00,69.3,56.2,30.04,NE,45,8.9,-999.0,63,-99.99,,,0.00,Acu-Link.com,2013-01-19 00:50:00,
2013-01-18 20:05:00,69.3,57.0,30.04,East,90,8.9,-999.0,65,-99.99,,,0.00,Acu-Link.com,2013-01-19 01:05:00,
2013-01-18 20:20:00,69.1,57.3,30.04,ENE,67,7.3,-999.0,66,-99.99,,,0.00,Acu-Link.com,2013-01-19 01:20:00,
2013-01-18 20:35:00,69.3,56.6,30.04,ENE,67,7.3,-999.0,64,-99.99,,,0.00,Acu-Link.com,2013-01-19 01:35:00,
2013-01-18 20:50:00,69.4,56.7,30.05,NE,45,10.4,-999.0,64,-99.99,,,0.00,Acu-Link.com,2013-01-19 01:50:00,
2013-01-18 21:05:00,69.6,56.4,30.05,ENE,67,8.9,-999.0,63,-99.99,,,0.00,Acu-Link.com,2013-01-19 02:05:00,
2013-01-18 21:20:00,69.3,56.6,30.05,ENE,67,6.3,-999.0,64,-99.99,,,0.00,Acu-Link.com,2013-01-19 02:20:00,
2013-01-18 21:35:00,69.1,56.4,30.05,NE,45,4.7,-999.0,64,-99.99,,,0.00,Acu-Link.com,2013-01-19 02:35:00,
2013-01-18 21:51:00,68.7,55.6,30.04,NE,45,5.8,-999.0,63,-99.99,,,0.00,Acu-Link.com,2013-01-19 02:51:00,
2013-01-18 22:06:00,68.9,55.8,30.05,NE,45,5.8,-999.0,63,-99.99,,,0.00,Acu-Link.com,2013-01-19 03:06:00,
2013-01-18 22:21:00,68.9,55.8,30.04,ESE,112,10.4,-999.0,63,-99.99,,,0.00,Acu-Link.com,2013-01-19 03:21:00,
2013-01-18 22:36:00,68.9,55.8,30.04,NE,45,6.3,-999.0,63,-99.99,,,0.00,Acu-Link.com,2013-01-19 03:36:00,
2013-01-18 22:51:00,69.1,56.4,30.04,ENE,67,5.8,-999.0,64,-99.99,,,0.00,Acu-Link.com,2013-01-19 03:51:00,
2013-01-18 23:06:00,69.4,56.7,30.04,ESE,112,4.7,-999.0,64,-99.99,,,0.00,Acu-Link.com,2013-01-19 04:06:00,
2013-01-18 23:36:00,69.8,58.8,30.04,ESE,112,8.9,-999.0,68,-99.99,,,0.00,Acu-Link.com,2013-01-19 04:36:00,
2013-01-18 23:52:00,69.8,59.2,30.03,East,90,8.9,-999.0,69,-99.99,,,0.00,Acu-Link.com,2013-01-19 04:52:00,